Time;durP1;ratioP1;P1;durP2;ratioP2;P2;SDS_P1;SDS_P2;PMS_P1;PMS_P2;Temp;Humidity;BMP_temperature;BMP_pressure;BME280_temperature;BME280_humidity;BME280_pressure;Samples;Min_cycle;Max_cycle;Signal;HPM_P1;HPM_P2
2022/08/05 00:01:00;;;;;;;;;;;;;;;19.13;94.00;99632.16;4994551;28;834;-65
2022/08/05 00:03:27;;;;;;;;;;;;;;;19.10;93.88;99627.50;4994565;28;784;-65
2022/08/05 00:05:53;;;;;;;;;;;;;;;19.05;93.98;99628.09;4994621;28;795;-65
2022/08/05 00:08:20;;;;;;;;;;;;;;;19.00;93.73;99615.50;4994613;28;787;-65
2022/08/05 00:10:47;;;;;;;;;;;;;;;18.93;93.82;99616.59;4994842;28;871;-65
2022/08/05 00:13:13;;;;;;;;;;;;;;;18.90;94.09;99616.72;4994933;28;1891;-65
2022/08/05 00:15:40;;;;;;;;;;;;;;;18.87;94.16;99626.06;4994221;28;799;-65
2022/08/05 00:18:07;;;;;;;;;;;;;;;18.83;94.22;99617.81;4994794;28;830;-65
2022/08/05 00:20:33;;;;;;;;;;;;;;;18.80;94.27;99623.53;4993973;28;851;-65
2022/08/05 00:23:00;;;;;;;;;;;;;;;18.73;94.23;99616.19;4994327;28;851;-65
2022/08/05 00:25:27;;;;;;;;;;;;;;;18.69;94.46;99615.56;4993940;28;814;-65
2022/08/05 00:27:53;;;;;;;;;;;;;;;18.67;94.73;99615.25;4993932;28;882;-65
2022/08/05 00:30:20;;;;;;;;;;;;;;;18.63;94.84;99615.41;4993070;28;894;-65
2022/08/05 00:32:48;;;;;;;;;;;;;;;18.61;94.89;99620.69;4993831;28;1910;-65
2022/08/05 00:35:15;;;;;;;;;;;;;;;18.64;95.13;99621.78;4993625;28;1406;-65
2022/08/05 00:37:42;;;;;;;;;;;;;;;18.67;95.32;99613.25;4993999;28;839;-65
2022/08/05 00:40:08;;;;;;;;;;;;;;;18.68;95.45;99614.03;4993686;28;882;-65
2022/08/05 00:42:36;;;;;;;;;;;;;;;18.68;95.67;99619.63;4993650;28;851;-65
2022/08/05 00:45:05;;;;;;;;;;;;;;;18.65;95.74;99615.72;4993625;28;807;-65
2022/08/05 00:47:32;;;;;;;;;;;;;;;18.63;95.95;99611.84;4993698;28;887;-65
2022/08/05 00:49:58;;;;;;;;;;;;;;;18.61;96.05;99609.50;4976165;28;1269;-65
2022/08/05 00:52:25;;;;;;;;;;;;;;;18.60;96.27;99616.31;4976426;28;1230;-65
2022/08/05 00:54:52;;;;;;;;;;;;;;;18.59;96.19;99616.81;4993704;28;1961;-65
2022/08/05 00:57:18;;;;;;;;;;;;;;;18.53;96.00;99609.00;4993946;28;760;-66
2022/08/05 00:59:47;;;;;;;;;;;;;;;18.47;95.98;99610.06;4993256;28;812;-65
2022/08/05 01:02:13;;;;;;;;;;;;;;;18.41;96.13;99607.09;4994039;28;756;-65
2022/08/05 01:04:39;;;;;;;;;;;;;;;18.36;96.47;99604.91;4993303;28;855;-65
2022/08/05 01:07:06;;;;;;;;;;;;;;;18.29;96.62;99608.00;4993168;28;804;-65
2022/08/05 01:09:33;;;;;;;;;;;;;;;18.28;97.04;99601.59;4993117;28;816;-65
2022/08/05 01:12:10;;;;;;;;;;;;;;;18.27;97.06;99604.88;4993281;28;851;-65
2022/08/05 01:14:57;;;;;;;;;;;;;;;18.24;97.39;99606.56;4993248;28;1882;-65
2022/08/05 01:17:50;;;;;;;;;;;;;;;18.20;97.37;99607.94;4982444;28;1316;-65
2022/08/05 01:20:46;;;;;;;;;;;;;;;18.18;97.79;99597.22;4990616;28;1154;-65
2022/08/05 01:23:31;;;;;;;;;;;;;;;18.19;97.87;99609.19;4980295;28;1390;-65
2022/08/05 01:26:13;;;;;;;;;;;;;;;18.21;98.20;99601.91;4992797;28;807;-65
2022/08/05 01:28:44;;;;;;;;;;;;;;;18.19;97.96;99595.97;4992808;28;803;-65
2022/08/05 01:31:31;;;;;;;;;;;;;;;18.20;98.19;99597.56;4992785;28;843;-66
2022/08/05 01:34:13;;;;;;;;;;;;;;;18.21;98.46;99599.09;4992411;28;1894;-66
2022/08/05 01:36:43;;;;;;;;;;;;;;;18.20;98.52;99586.38;4992760;28;827;-66
2022/08/05 01:39:11;;;;;;;;;;;;;;;18.22;98.47;99594.28;4992821;28;804;-65
2022/08/05 01:41:38;;;;;;;;;;;;;;;18.18;98.38;99591.63;4992660;28;863;-66
2022/08/05 01:44:06;;;;;;;;;;;;;;;18.11;98.55;99595.47;4992590;28;795;-65
2022/08/05 01:46:33;;;;;;;;;;;;;;;18.06;98.51;99595.31;4992562;28;823;-65
2022/08/05 01:49:01;;;;;;;;;;;;;;;17.98;98.74;99597.59;4992339;28;1037;-65
2022/08/05 01:51:30;;;;;;;;;;;;;;;17.94;98.75;99594.16;4992636;28;787;-65
2022/08/05 01:53:58;;;;;;;;;;;;;;;17.89;99.02;99594.75;4992323;28;2253;-66
2022/08/05 01:56:28;;;;;;;;;;;;;;;17.84;99.08;99596.13;4992413;28;834;-65
2022/08/05 01:58:56;;;;;;;;;;;;;;;17.80;99.24;99597.47;4992345;28;803;-65
2022/08/05 02:01:24;;;;;;;;;;;;;;;17.76;99.32;99601.16;4992590;28;882;-65
2022/08/05 02:03:52;;;;;;;;;;;;;;;17.77;99.35;99593.56;4992426;28;843;-65
2022/08/05 02:06:19;;;;;;;;;;;;;;;17.79;99.18;99590.31;4992229;28;890;-66
2022/08/05 02:08:45;;;;;;;;;;;;;;;17.79;99.28;99591.09;4992312;28;898;-65
2022/08/05 02:11:14;;;;;;;;;;;;;;;17.79;99.16;99584.72;4992283;28;851;-65
2022/08/05 02:13:44;;;;;;;;;;;;;;;17.76;99.09;99586.44;4992128;28;1890;-65
2022/08/05 02:16:14;;;;;;;;;;;;;;;17.72;99.16;99583.75;4992104;28;870;-65
2022/08/05 02:18:51;;;;;;;;;;;;;;;17.71;99.20;99593.38;4992227;28;859;-65
2022/08/05 02:21:20;;;;;;;;;;;;;;;17.73;99.36;99585.31;4992052;28;800;-65
2022/08/05 02:23:49;;;;;;;;;;;;;;;17.74;98.95;99580.50;4992358;28;831;-65
2022/08/05 02:26:19;;;;;;;;;;;;;;;17.72;99.08;99589.34;4992080;28;857;-65
2022/08/05 02:28:47;;;;;;;;;;;;;;;17.72;99.06;99580.19;4992013;28;894;-65
2022/08/05 02:31:20;;;;;;;;;;;;;;;17.72;99.11;99583.75;4992015;28;831;-65
2022/08/05 02:33:51;;;;;;;;;;;;;;;18.07;99.91;99580.06;4991892;28;1948;-65
2022/08/05 02:36:19;;;;;;;;;;;;;;;18.84;98.05;99582.97;4991948;28;870;-65
2022/08/05 02:38:47;;;;;;;;;;;;;;;19.46;95.07;99589.50;4991990;28;1016;-65
2022/08/05 02:41:16;;;;;;;;;;;;;;;19.91;92.44;99582.28;4991860;28;824;-65
2022/08/05 02:43:43;;;;;;;;;;;;;;;20.22;89.78;99584.03;4992336;28;823;-65
2022/08/05 02:46:13;;;;;;;;;;;;;;;20.46;87.54;99575.66;4991984;28;867;-65
2022/08/05 02:48:40;;;;;;;;;;;;;;;20.64;85.70;99580.41;4991800;28;823;-65
2022/08/05 02:51:07;;;;;;;;;;;;;;;20.75;84.16;99578.63;4991826;28;873;-65
2022/08/05 02:53:36;;;;;;;;;;;;;;;20.87;82.57;99576.84;4994428;28;2003;-65
2022/08/05 02:56:03;;;;;;;;;;;;;;;20.93;81.88;99576.94;4995975;28;909;-64
2022/08/05 02:58:29;;;;;;;;;;;;;;;21.02;81.07;99576.88;4995568;28;795;-64
2022/08/05 03:00:58;;;;;;;;;;;;;;;21.08;80.22;99580.59;4995646;28;820;-65
2022/08/05 03:03:25;;;;;;;;;;;;;;;21.08;80.03;99574.97;4995622;28;875;-65
2022/08/05 03:05:52;;;;;;;;;;;;;;;21.10;79.51;99578.06;4995543;28;819;-65
2022/08/05 03:08:20;;;;;;;;;;;;;;;21.12;79.09;99575.56;4995363;28;843;-64
2022/08/05 03:10:46;;;;;;;;;;;;;;;21.16;79.03;99575.34;4995409;28;807;-65
2022/08/05 03:13:14;;;;;;;;;;;;;;;21.15;78.83;99580.19;4977729;28;1882;-65
2022/08/05 03:15:47;;;;;;;;;;;;;;;21.16;78.47;99584.53;4995339;28;799;-65
2022/08/05 03:18:14;;;;;;;;;;;;;;;21.17;78.10;99580.50;4995236;28;969;-65
2022/08/05 03:20:40;;;;;;;;;;;;;;;21.19;77.93;99583.59;4995241;28;843;-65
2022/08/05 03:23:08;;;;;;;;;;;;;;;21.22;77.53;99581.84;4995220;28;823;-64
2022/08/05 03:25:36;;;;;;;;;;;;;;;21.26;77.26;99585.25;4995115;28;870;-65
2022/08/05 03:28:03;;;;;;;;;;;;;;;21.28;76.90;99579.16;4977652;28;1194;-65
2022/08/05 03:30:33;;;;;;;;;;;;;;;21.28;76.71;99582.75;4995021;28;850;-64
2022/08/05 03:33:00;;;;;;;;;;;;;;;21.28;76.71;99588.38;4995076;28;1951;-64
2022/08/05 03:35:28;;;;;;;;;;;;;;;21.34;76.32;99588.47;4994717;28;1409;-64
2022/08/05 03:37:58;;;;;;;;;;;;;;;21.38;76.00;99586.25;4977439;28;1328;-64
2022/08/05 03:40:24;;;;;;;;;;;;;;;21.39;75.80;99585.00;4994813;28;811;-64
2022/08/05 03:42:51;;;;;;;;;;;;;;;21.43;75.56;99584.84;4994808;28;866;-64
2022/08/05 03:45:19;;;;;;;;;;;;;;;21.46;75.64;99593.06;4994605;28;851;-64
2022/08/05 03:47:45;;;;;;;;;;;;;;;21.50;75.33;99576.00;4995299;28;784;-65
2022/08/05 03:50:12;;;;;;;;;;;;;;;21.56;75.17;99590.94;4994940;28;799;-64
2022/08/05 03:53:05;;;;;;;;;;;;;;;21.65;74.66;99585.22;4994639;28;803;-64
2022/08/05 03:55:36;;;;;;;;;;;;;;;21.73;74.57;99585.63;4992076;28;1088;-64
2022/08/05 03:58:04;;;;;;;;;;;;;;;21.78;74.01;99587.75;4994443;28;870;-65
2022/08/05 04:00:31;;;;;;;;;;;;;;;21.84;73.97;99591.44;4994745;28;850;-65
2022/08/05 04:03:00;;;;;;;;;;;;;;;21.91;73.60;99593.09;4994397;28;874;-64
2022/08/05 04:05:31;;;;;;;;;;;;;;;22.00;73.12;99584.56;4993244;28;858;-64
2022/08/05 04:07:58;;;;;;;;;;;;;;;22.10;72.89;99588.03;4994350;28;870;-64
2022/08/05 04:10:25;;;;;;;;;;;;;;;22.18;72.44;99583.53;4994329;28;858;-64
2022/08/05 04:12:52;;;;;;;;;;;;;;;22.27;72.25;99586.25;4994239;28;861;-64
2022/08/05 04:15:19;;;;;;;;;;;;;;;22.39;71.69;99587.22;4994143;28;891;-65
2022/08/05 04:17:45;;;;;;;;;;;;;;;22.51;71.32;99582.50;4994219;28;847;-64
2022/08/05 04:20:22;;;;;;;;;;;;;;;22.51;71.10;99582.50;4994083;28;787;-64
2022/08/05 04:22:48;;;;;;;;;;;;;;;22.39;71.53;99581.59;4994161;28;831;-64
2022/08/05 04:25:15;;;;;;;;;;;;;;;22.39;71.38;99588.00;4994117;28;812;-64
2022/08/05 04:27:41;;;;;;;;;;;;;;;22.56;71.04;99584.66;4994149;28;942;-64
2022/08/05 04:30:08;;;;;;;;;;;;;;;22.82;69.67;99591.13;4994160;28;846;-64
2022/08/05 04:32:36;;;;;;;;;;;;;;;23.06;68.74;99592.22;4976653;28;1355;-64
2022/08/05 04:35:03;;;;;;;;;;;;;;;23.25;67.89;99593.47;4993817;28;1887;-64
2022/08/05 04:37:31;;;;;;;;;;;;;;;23.41;66.78;99594.94;4994007;28;812;-64
2022/08/05 04:39:58;;;;;;;;;;;;;;;23.55;66.07;99590.44;4976319;28;1312;-64
2022/08/05 04:42:25;;;;;;;;;;;;;;;23.66;65.33;99596.19;4993863;28;804;-63
2022/08/05 04:44:51;;;;;;;;;;;;;;;23.75;64.76;99592.44;4993732;28;799;-64
2022/08/05 04:47:18;;;;;;;;;;;;;;;23.83;64.13;99593.56;4993618;28;812;-63
2022/08/05 04:49:45;;;;;;;;;;;;;;;23.94;63.51;99595.69;4993770;28;845;-64
2022/08/05 04:52:12;;;;;;;;;;;;;;;24.08;62.75;99594.03;4993691;28;804;-64
2022/08/05 04:54:40;;;;;;;;;;;;;;;24.23;62.14;99581.31;4993671;28;1968;-64
2022/08/05 04:57:07;;;;;;;;;;;;;;;24.40;61.34;99560.88;4993729;28;803;-64
2022/08/05 04:59:34;;;;;;;;;;;;;;;24.53;61.21;99581.00;4993711;28;970;-64
2022/08/05 05:02:01;;;;;;;;;;;;;;;24.42;61.11;99581.69;4993473;28;875;-64
2022/08/05 05:04:27;;;;;;;;;;;;;;;24.37;61.33;99579.63;4993324;28;859;-63
2022/08/05 05:06:56;;;;;;;;;;;;;;;24.40;61.40;99575.75;4993345;28;843;-64
2022/08/05 05:09:26;;;;;;;;;;;;;;;24.45;61.16;99568.59;4993191;28;957;-64
2022/08/05 05:11:53;;;;;;;;;;;;;;;24.52;61.09;99558.94;4975725;28;1252;-63
2022/08/05 05:14:32;;;;;;;;;;;;;;;24.56;60.15;99563.06;4992936;28;1951;-63
2022/08/05 05:20:01;;;;;;;;;;;;;;;24.74;59.77;99561.84;4993097;28;669;-64
2022/08/05 05:22:27;;;;;;;;;;;;;;;24.84;58.76;99556.78;4992904;28;898;-64
2022/08/05 05:24:54;;;;;;;;;;;;;;;24.94;59.05;99565.78;4992961;28;819;-63
2022/08/05 05:27:36;;;;;;;;;;;;;;;25.04;58.28;99553.75;4992850;28;831;-64
2022/08/05 05:30:04;;;;;;;;;;;;;;;25.16;57.64;99551.72;4975319;28;1174;-64
2022/08/05 05:32:30;;;;;;;;;;;;;;;25.24;57.37;99552.03;4992856;28;955;-64
2022/08/05 05:35:16;;;;;;;;;;;;;;;25.34;57.28;99555.41;4992434;28;1874;-63
2022/08/05 05:37:51;;;;;;;;;;;;;;;25.56;56.36;99557.47;4992932;28;894;-65
2022/08/05 05:52:31;;;;;;;;;;;;;;;28.36;47.92;99568.19;4992861;28;623;-64
2022/08/05 05:55:00;;;;;;;;;;;;;;;28.98;46.26;99576.03;4992406;28;1971;-64
2022/08/05 05:57:27;;;;;;;;;;;;;;;29.24;45.47;99581.16;4992359;28;807;-63
2022/08/05 05:59:53;;;;;;;;;;;;;;;29.29;45.31;99574.59;4992439;28;865;-63
2022/08/05 06:02:20;;;;;;;;;;;;;;;29.34;45.62;99575.06;4992346;28;819;-64
2022/08/05 06:04:47;;;;;;;;;;;;;;;29.55;44.59;99578.88;4992315;28;871;-63
2022/08/05 06:07:15;;;;;;;;;;;;;;;30.13;44.20;99571.78;4992277;28;843;-63
2022/08/05 06:09:41;;;;;;;;;;;;;;;30.64;42.29;99577.34;4992441;28;874;-63
2022/08/05 06:12:10;;;;;;;;;;;;;;;30.95;41.83;99572.06;4992270;28;886;-64
2022/08/05 06:14:36;;;;;;;;;;;;;;;30.96;41.20;99578.53;4992301;28;1949;-64
2022/08/05 06:17:03;;;;;;;;;;;;;;;30.58;41.67;99570.97;4992121;28;882;-63
2022/08/05 06:19:29;;;;;;;;;;;;;;;30.76;41.57;99574.25;4992276;28;874;-64
2022/08/05 06:21:56;;;;;;;;;;;;;;;30.84;41.15;99572.28;4992327;28;848;-64
2022/08/05 06:24:22;;;;;;;;;;;;;;;31.06;41.08;99580.38;4992122;28;842;-63
2022/08/05 06:26:49;;;;;;;;;;;;;;;31.41;40.73;99584.03;4992090;28;869;-63
2022/08/05 06:29:23;;;;;;;;;;;;;;;31.38;39.84;99582.28;4995988;28;804;-63
2022/08/05 06:31:49;;;;;;;;;;;;;;;31.70;39.75;99578.44;4996092;28;824;-63
2022/08/05 06:34:15;;;;;;;;;;;;;;;31.91;38.66;99584.94;4995860;28;1894;-63
2022/08/05 06:36:42;;;;;;;;;;;;;;;32.34;38.52;99585.69;4996010;28;792;-63
2022/08/05 06:42:12;;;;;;;;;;;;;;;32.83;36.80;99586.97;4996036;28;797;-63
2022/08/05 06:44:38;;;;;;;;;;;;;;;33.12;36.05;99591.34;4995718;28;874;-63
2022/08/05 06:47:05;;;;;;;;;;;;;;;33.30;36.21;99591.59;4978373;28;1277;-63
2022/08/05 06:49:32;;;;;;;;;;;;;;;33.38;35.57;99592.41;4995702;28;865;-63
2022/08/05 06:51:58;;;;;;;;;;;;;;;33.32;35.57;99595.41;4995795;28;831;-64
2022/08/05 06:54:25;;;;;;;;;;;;;;;33.63;35.77;99597.63;4995639;28;1982;-63
2022/08/05 06:56:51;;;;;;;;;;;;;;;33.35;35.18;99600.03;4995752;28;847;-62
2022/08/05 06:59:18;;;;;;;;;;;;;;;33.30;35.46;99595.22;4995582;28;819;-63
2022/08/05 07:01:44;;;;;;;;;;;;;;;33.03;35.76;99602.53;4995710;28;804;-63
2022/08/05 07:04:11;;;;;;;;;;;;;;;33.25;35.75;99599.03;4995592;28;807;-63
2022/08/05 07:06:37;;;;;;;;;;;;;;;33.64;35.41;99605.66;4995485;28;984;-63
2022/08/05 07:09:04;;;;;;;;;;;;;;;33.68;34.86;99608.16;4995543;28;807;-62
2022/08/05 07:11:32;;;;;;;;;;;;;;;33.90;35.51;99615.25;4995369;28;877;-64
2022/08/05 07:16:48;;;;;;;;;;;;;;;35.35;32.63;99611.44;4995753;28;700;-64
2022/08/05 07:19:19;;;;;;;;;;;;;;;35.67;32.40;99612.81;4995330;28;811;-64
2022/08/05 07:21:47;;;;;;;;;;;;;;;35.54;32.48;99610.94;4995199;28;953;-63
2022/08/05 07:24:13;;;;;;;;;;;;;;;35.71;32.09;99612.41;4995195;28;820;-64
2022/08/05 07:26:41;;;;;;;;;;;;;;;35.87;32.01;99602.34;4995139;28;814;-63
2022/08/05 07:29:07;;;;;;;;;;;;;;;36.20;31.54;99613.81;4995145;28;886;-64
2022/08/05 07:31:34;;;;;;;;;;;;;;;36.55;31.06;99608.09;4995090;28;791;-64
2022/08/05 07:34:07;;;;;;;;;;;;;;;36.39;30.50;99604.63;4994978;28;1886;-64
2022/08/05 07:36:33;;;;;;;;;;;;;;;36.23;31.96;99612.63;4994956;28;866;-64
2022/08/05 07:39:00;;;;;;;;;;;;;;;35.77;32.36;99610.09;4994541;28;882;-63
2022/08/05 07:41:27;;;;;;;;;;;;;;;35.78;31.82;99623.88;4994792;28;875;-64
2022/08/05 07:43:54;;;;;;;;;;;;;;;35.86;30.85;99608.69;4994805;28;863;-64
2022/08/05 07:46:21;;;;;;;;;;;;;;;36.05;30.60;99608.16;4994778;28;816;-63
2022/08/05 07:48:47;;;;;;;;;;;;;;;35.82;31.17;99608.31;4994676;28;807;-63
2022/08/05 07:51:14;;;;;;;;;;;;;;;35.79;31.24;99604.50;4977256;28;1173;-64
2022/08/05 07:53:41;;;;;;;;;;;;;;;36.02;31.18;99594.94;4994528;28;1906;-61
2022/08/05 07:56:08;;;;;;;;;;;;;;;35.32;31.65;99603.22;4994684;28;855;-62
2022/08/05 07:58:35;;;;;;;;;;;;;;;35.56;31.40;99604.63;4994688;28;835;-61
2022/08/05 08:01:01;;;;;;;;;;;;;;;36.33;30.75;99602.00;4994677;28;917;-61
2022/08/05 08:03:28;;;;;;;;;;;;;;;36.90;30.23;99594.53;4977017;28;1275;-61
2022/08/05 08:05:55;;;;;;;;;;;;;;;37.06;29.51;99595.09;4994653;28;819;-61
2022/08/05 08:08:22;;;;;;;;;;;;;;;36.71;30.09;99600.88;4994354;28;855;-61
2022/08/05 08:10:48;;;;;;;;;;;;;;;36.79;29.42;99598.69;4994195;28;808;-60
2022/08/05 08:13:15;;;;;;;;;;;;;;;36.77;28.88;99595.63;4976817;28;1882;-60
2022/08/05 08:15:42;;;;;;;;;;;;;;;36.62;28.72;99595.81;4994439;28;815;-61
2022/08/05 08:18:08;;;;;;;;;;;;;;;36.85;30.51;99598.44;4994184;28;839;-61
2022/08/05 08:20:39;;;;;;;;;;;;;;;37.46;28.60;99596.16;4994153;28;879;-60
2022/08/05 08:23:06;;;;;;;;;;;;;;;37.59;27.90;99596.53;4994027;28;863;-60
2022/08/05 14:00:30;;;;;;;;;;;;;;;36.26;35.61;99417.97;5088773;27;2281;-61
2022/08/05 14:02:56;;;;;;;;;;;;;;;35.84;36.30;99410.91;5087557;28;1217;-62
2022/08/05 14:05:21;;;;;;;;;;;;;;;34.60;37.75;99406.59;5088836;28;850;-62
2022/08/05 14:07:47;;;;;;;;;;;;;;;33.49;39.40;99402.97;5088660;28;878;-63
2022/08/05 14:10:21;;;;;;;;;;;;;;;32.88;40.87;99414.34;5088741;28;819;-65
2022/08/05 14:12:47;;;;;;;;;;;;;;;32.40;41.17;99413.97;5088627;28;873;-66
2022/08/05 14:15:13;;;;;;;;;;;;;;;32.09;42.32;99411.72;5087353;28;1201;-65
2022/08/05 14:17:39;;;;;;;;;;;;;;;31.79;42.70;99412.25;5088526;28;1906;-65
2022/08/05 14:20:05;;;;;;;;;;;;;;;31.56;43.13;99409.25;5088478;28;863;-66
2022/08/05 14:22:31;;;;;;;;;;;;;;;31.56;43.46;99409.25;5087200;28;1336;-65
2022/08/05 14:24:57;;;;;;;;;;;;;;;31.31;44.55;99411.69;5088384;28;866;-64
2022/08/05 14:27:23;;;;;;;;;;;;;;;30.87;45.72;99405.72;5087114;28;1288;-65
2022/08/05 14:29:49;;;;;;;;;;;;;;;30.56;46.73;99405.38;5088278;28;811;-65
2022/08/05 14:32:15;;;;;;;;;;;;;;;30.76;46.79;99408.81;5088345;28;819;-65
2022/08/05 14:34:42;;;;;;;;;;;;;;;31.01;46.81;99412.91;5088289;28;811;-64
2022/08/05 14:37:07;;;;;;;;;;;;;;;31.76;45.39;99404.81;5088297;28;833;-66
2022/08/05 14:39:33;;;;;;;;;;;;;;;32.19;45.29;99414.81;5088278;28;1949;-64
2022/08/05 14:41:59;;;;;;;;;;;;;;;32.58;44.09;99406.44;5088836;28;755;-65
2022/08/05 14:44:24;;;;;;;;;;;;;;;32.64;44.10;99404.94;5087994;28;866;-63
2022/08/05 14:46:50;;;;;;;;;;;;;;;32.75;43.83;99406.69;5088022;28;1055;-65
2022/08/05 14:49:16;;;;;;;;;;;;;;;32.87;43.56;99409.97;5088036;28;835;-64
2022/08/05 14:51:42;;;;;;;;;;;;;;;32.85;43.08;99401.19;5087876;28;819;-64
2022/08/05 14:54:07;;;;;;;;;;;;;;;32.96;43.75;99401.56;5087887;28;890;-64
2022/08/05 14:56:34;;;;;;;;;;;;;;;33.08;43.15;99399.16;5087818;28;862;-64
2022/08/05 14:59:00;;;;;;;;;;;;;;;33.02;43.34;99398.53;5086153;28;1894;-63
2022/08/05 15:01:26;;;;;;;;;;;;;;;32.74;43.55;99405.16;5074500;28;867;-64
2022/08/05 15:03:51;;;;;;;;;;;;;;;32.32;44.60;99403.25;5072977;28;1311;-65
2022/08/05 15:06:17;;;;;;;;;;;;;;;31.99;45.44;99402.16;5072826;28;1206;-65
2022/08/05 15:08:43;;;;;;;;;;;;;;;31.79;46.02;99403.69;5074166;28;879;-63
2022/08/05 15:11:09;;;;;;;;;;;;;;;31.77;47.01;99394.91;5074031;28;879;-65
2022/08/05 15:13:35;;;;;;;;;;;;;;;31.61;46.70;99391.19;5073967;28;860;-64
2022/08/05 15:16:01;;;;;;;;;;;;;;;31.28;46.74;99387.09;5073969;28;858;-65
2022/08/05 15:18:26;;;;;;;;;;;;;;;30.82;48.14;99387.41;5073782;28;1973;-65
2022/08/05 15:20:52;;;;;;;;;;;;;;;30.40;49.27;99386.53;5073955;28;828;-65
2022/08/05 15:23:18;;;;;;;;;;;;;;;30.23;49.72;99390.47;5074137;28;874;-65
2022/08/05 15:25:43;;;;;;;;;;;;;;;30.41;49.49;99388.09;5074074;28;882;-65
2022/08/05 15:59:52;;;;;;;;;;;;;;;28.05;58.55;99399.84;5008706;28;1894;-69
2022/08/05 16:02:19;;;;;;;;;;;;;;;28.22;57.96;99407.41;5013419;28;827;-68
2022/08/05 16:04:46;;;;;;;;;;;;;;;28.39;58.21;99396.59;5013554;28;879;-71
2022/08/05 16:07:34;;;;;;;;;;;;;;;28.41;57.87;99398.91;5013319;28;949;-68
2022/08/05 16:10:01;;;;;;;;;;;;;;;28.34;57.88;99399.53;5013357;28;914;-68
2022/08/05 16:12:27;;;;;;;;;;;;;;;28.27;58.15;99398.84;5012302;28;804;-69
2022/08/05 16:14:54;;;;;;;;;;;;;;;28.24;57.79;99393.44;5013202;28;804;-68
2022/08/05 16:17:21;;;;;;;;;;;;;;;28.26;58.30;99405.06;5011872;28;1345;-68
2022/08/05 16:19:49;;;;;;;;;;;;;;;28.06;58.28;99406.34;5013015;28;1906;-68
2022/08/05 16:22:16;;;;;;;;;;;;;;;27.85;58.81;99415.31;5011792;28;1287;-68
2022/08/05 16:24:42;;;;;;;;;;;;;;;27.80;59.32;99418.19;5012929;28;863;-68
2022/08/05 16:27:12;;;;;;;;;;;;;;;27.61;60.48;99420.94;5012929;28;905;-68
2022/08/05 16:29:39;;;;;;;;;;;;;;;27.40;60.94;99410.06;5012892;28;915;-68
2022/08/05 16:32:05;;;;;;;;;;;;;;;27.31;61.54;99407.53;5013049;28;843;-69
2022/08/05 16:34:32;;;;;;;;;;;;;;;27.17;61.77;99408.69;5012744;28;859;-67
2022/08/05 16:36:58;;;;;;;;;;;;;;;27.01;62.49;99405.44;5013130;28;860;-68
2022/08/05 16:39:25;;;;;;;;;;;;;;;26.92;62.96;99405.00;5012652;28;1890;-68
2022/08/05 16:41:52;;;;;;;;;;;;;;;26.80;63.69;99407.13;5012700;28;856;-68
2022/08/05 16:44:18;;;;;;;;;;;;;;;26.73;63.76;99410.50;5012722;28;890;-68
2022/08/05 16:46:45;;;;;;;;;;;;;;;26.62;64.70;99409.28;5012621;28;828;-68
2022/08/05 16:49:12;;;;;;;;;;;;;;;26.55;64.51;99412.66;5012535;28;895;-68
2022/08/05 16:51:38;;;;;;;;;;;;;;;26.45;65.43;99420.66;5012608;28;884;-69
2022/08/05 16:54:05;;;;;;;;;;;;;;;26.33;65.82;99422.03;5012400;28;897;-67
2022/08/05 16:56:37;;;;;;;;;;;;;;;26.18;65.99;99422.34;5012789;28;994;-69
2022/08/05 16:59:04;;;;;;;;;;;;;;;26.01;66.64;99428.06;5012499;28;1978;-68
2022/08/05 17:01:30;;;;;;;;;;;;;;;25.88;67.11;99427.78;5025324;28;1431;-69
2022/08/05 17:03:57;;;;;;;;;;;;;;;25.76;67.51;99427.06;5032134;28;875;-67
2022/08/05 17:06:23;;;;;;;;;;;;;;;25.64;67.62;99428.34;5032034;28;827;-68
2022/08/05 17:08:51;;;;;;;;;;;;;;;25.51;68.17;99425.28;5031899;28;914;-68
2022/08/05 17:11:17;;;;;;;;;;;;;;;25.38;68.42;99437.88;5030669;28;1235;-68
2022/08/05 17:13:45;;;;;;;;;;;;;;;25.26;68.70;99434.31;5031830;28;911;-68
2022/08/05 17:16:17;;;;;;;;;;;;;;;25.13;69.15;99428.31;5031873;28;847;-67
2022/08/05 17:18:44;;;;;;;;;;;;;;;24.98;69.69;99431.38;5031722;28;1914;-67
2022/08/05 17:21:11;;;;;;;;;;;;;;;24.85;70.19;99433.94;5031822;28;848;-68
2022/08/05 17:23:39;;;;;;;;;;;;;;;24.74;70.52;99433.94;5031351;28;835;-68
2022/08/05 17:26:06;;;;;;;;;;;;;;;24.61;71.38;99431.59;5031735;28;887;-68
2022/08/05 17:28:34;;;;;;;;;;;;;;;24.50;71.50;99437.19;5031706;28;843;-67
2022/08/05 17:31:01;;;;;;;;;;;;;;;24.36;72.03;99438.91;5031627;28;831;-67
2022/08/05 17:33:28;;;;;;;;;;;;;;;24.24;72.42;99436.03;5031612;28;800;-66
2022/08/05 17:35:54;;;;;;;;;;;;;;;24.14;72.85;99443.16;5031545;28;828;-67
2022/08/05 17:38:21;;;;;;;;;;;;;;;24.01;73.52;99449.25;5031479;28;1890;-67
2022/08/05 17:40:48;;;;;;;;;;;;;;;23.90;73.91;99449.19;5031521;28;831;-67
2022/08/05 17:43:14;;;;;;;;;;;;;;;23.77;74.48;99443.97;5030369;28;1449;-67
2022/08/05 17:45:41;;;;;;;;;;;;;;;23.70;74.96;99441.56;5031445;28;843;-67
2022/08/05 17:48:07;;;;;;;;;;;;;;;23.62;75.29;99446.94;5031588;28;946;-67
2022/08/05 17:50:33;;;;;;;;;;;;;;;23.59;75.70;99447.16;5031474;28;835;-67
2022/08/05 17:53:01;;;;;;;;;;;;;;;23.58;75.84;99445.63;5031656;28;835;-66
2022/08/05 17:55:29;;;;;;;;;;;;;;;23.50;75.88;99448.09;5031610;28;932;-67
2022/08/05 17:57:59;;;;;;;;;;;;;;;23.36;76.37;99460.28;5031627;28;1893;-67
2022/08/05 18:00:25;;;;;;;;;;;;;;;23.21;77.17;99468.88;5031096;28;1307;-66
2022/08/05 18:02:52;;;;;;;;;;;;;;;23.12;77.43;99469.81;5031326;28;891;-67
2022/08/05 18:05:19;;;;;;;;;;;;;;;23.03;78.06;99472.81;5031353;28;811;-67
2022/08/05 18:07:45;;;;;;;;;;;;;;;22.98;78.76;99470.66;5031233;28;815;-67
2022/08/05 18:10:12;;;;;;;;;;;;;;;22.93;79.32;99474.19;5031282;28;875;-67
2022/08/05 18:12:39;;;;;;;;;;;;;;;22.83;79.50;99474.38;5031163;28;835;-66
2022/08/05 18:15:08;;;;;;;;;;;;;;;22.76;80.06;99474.00;5031236;28;890;-66
2022/08/05 18:17:35;;;;;;;;;;;;;;;22.72;80.61;99474.22;5029828;28;1183;-67
2022/08/05 18:20:02;;;;;;;;;;;;;;;22.70;80.69;99484.44;5031091;28;1913;-67
2022/08/05 18:22:29;;;;;;;;;;;;;;;22.68;81.10;99489.78;5031073;28;863;-67
2022/08/05 18:24:56;;;;;;;;;;;;;;;22.59;81.43;99494.28;5031023;28;800;-67
2022/08/05 18:27:22;;;;;;;;;;;;;;;22.49;81.59;99497.75;5031049;28;847;-67
2022/08/05 18:29:49;;;;;;;;;;;;;;;22.41;81.92;99500.22;5031062;28;895;-67
2022/08/05 18:32:15;;;;;;;;;;;;;;;22.35;82.33;99496.56;5031241;28;812;-67
2022/08/05 18:34:42;;;;;;;;;;;;;;;22.30;82.59;99495.22;5031183;28;820;-67
2022/08/05 18:37:09;;;;;;;;;;;;;;;22.26;83.13;99505.13;5034814;28;843;-67
2022/08/05 18:39:36;;;;;;;;;;;;;;;22.20;83.46;99502.22;5034646;28;1894;-67
2022/08/05 18:42:02;;;;;;;;;;;;;;;22.14;83.55;99499.31;5034839;28;820;-67
2022/08/05 18:44:31;;;;;;;;;;;;;;;22.13;83.71;99499.81;5034625;28;839;-67
2022/08/05 18:46:58;;;;;;;;;;;;;;;22.08;84.01;99497.69;5034643;28;844;-68
2022/08/05 18:54:55;;;;;;;;;;;;;;;21.96;84.93;99493.94;5034446;28;1193;-67
2022/08/05 18:57:22;;;;;;;;;;;;;;;21.93;85.15;99501.28;5034452;28;820;-68
2022/08/05 18:59:48;;;;;;;;;;;;;;;21.89;85.58;99489.50;5034327;28;1965;-67
2022/08/05 19:02:15;;;;;;;;;;;;;;;21.84;85.93;99498.59;5034162;28;1229;-67
2022/08/05 19:04:41;;;;;;;;;;;;;;;21.87;86.08;99491.22;5034236;28;800;-66
2022/08/05 19:07:08;;;;;;;;;;;;;;;21.92;86.07;99491.31;5034202;28;841;-66
2022/08/05 19:09:35;;;;;;;;;;;;;;;21.96;86.09;99493.94;5034186;28;891;-67
2022/08/05 19:12:01;;;;;;;;;;;;;;;21.97;85.92;99490.63;5034314;28;848;-67
2022/08/05 19:14:28;;;;;;;;;;;;;;;21.98;85.82;99497.81;5034146;28;820;-67
2022/08/05 19:16:55;;;;;;;;;;;;;;;21.94;86.00;99485.22;5034039;28;831;-67
2022/08/05 19:19:22;;;;;;;;;;;;;;;21.90;86.20;99479.78;5033978;28;2012;-67
2022/08/05 19:21:48;;;;;;;;;;;;;;;21.84;86.36;99489.41;5033876;28;886;-66
2022/08/05 19:24:14;;;;;;;;;;;;;;;21.75;86.63;99485.44;5033950;28;824;-67
2022/08/05 19:26:41;;;;;;;;;;;;;;;21.66;87.26;99482.75;5033859;28;852;-67
2022/08/05 19:29:07;;;;;;;;;;;;;;;21.59;86.95;99486.72;5032480;28;1273;-67
2022/08/05 19:31:34;;;;;;;;;;;;;;;21.52;87.43;99480.72;5033829;28;833;-67
2022/08/05 19:34:00;;;;;;;;;;;;;;;21.45;87.57;99481.88;5033731;28;848;-67
2022/08/05 19:36:27;;;;;;;;;;;;;;;21.41;87.39;99484.09;5033787;28;851;-67
2022/08/05 19:38:54;;;;;;;;;;;;;;;21.36;87.42;99488.34;5033645;28;1886;-67
2022/08/05 19:41:21;;;;;;;;;;;;;;;21.30;87.43;99479.03;5033557;28;823;-67